Time;durP1;ratioP1;P1;durP2;ratioP2;P2;SDS_P1;SDS_P2;PMS_P1;PMS_P2;Temp;Humidity;BMP_temperature;BMP_pressure;BME280_temperature;BME280_humidity;BME280_pressure;Samples;Min_cycle;Max_cycle;Signal;HPM_P1;HPM_P2
2022/08/30 00:03:14;;;;;;;9.75;2.28;;;28.60;99.90;;;;;;5033048;28;20397;-50
2022/08/30 00:05:42;;;;;;;10.52;4.00;;;28.60;99.90;;;;;;5015394;28;20021;-50
2022/08/30 00:08:08;;;;;;;8.27;3.33;;;28.60;99.90;;;;;;5033152;28;20025;-50
2022/08/30 00:10:34;;;;;;;11.20;3.10;;;28.50;99.90;;;;;;5032886;28;20109;-50
2022/08/30 00:18:42;;;;;;;11.38;3.50;;;28.50;99.90;;;;;;5469200;22;20113;-51
2022/08/30 00:21:09;;;;;;;7.88;2.30;;;28.50;99.90;;;;;;4974056;28;20500;-51
2022/08/30 00:23:35;;;;;;;9.30;2.97;;;28.50;99.90;;;;;;4974013;28;20575;-51
2022/08/30 00:26:02;;;;;;;8.32;2.60;;;28.50;99.90;;;;;;4974476;28;20106;-51
2022/08/30 00:28:29;;;;;;;11.85;2.67;;;28.50;99.90;;;;;;4974244;28;20118;-51
2022/08/30 00:30:55;;;;;;;8.45;2.63;;;28.50;99.90;;;;;;4974065;28;20027;-51
2022/08/30 00:33:21;;;;;;;8.85;2.47;;;28.50;99.90;;;;;;4974036;28;20030;-51
2022/08/30 00:35:48;;;;;;;13.77;4.03;;;28.50;99.90;;;;;;4972806;28;20074;-51
2022/08/30 00:38:14;;;;;;;6.35;2.20;;;28.50;99.90;;;;;;4974009;28;20382;-51
2022/08/30 00:40:43;;;;;;;7.43;2.70;;;28.60;99.90;;;;;;4973982;28;20019;-50
2022/08/30 00:43:16;;;;;;;10.85;2.25;;;28.60;99.90;;;;;;4973847;28;20382;-50
2022/08/30 00:45:42;;;;;;;11.18;2.65;;;28.60;99.90;;;;;;4973841;28;20031;-51
2022/08/30 00:48:08;;;;;;;10.75;2.60;;;28.60;99.90;;;;;;4973809;28;20102;-51
2022/08/30 00:50:41;;;;;;;10.50;2.30;;;28.60;99.90;;;;;;4973946;28;20019;-51
2022/08/30 00:53:13;;;;;;;11.50;2.33;;;28.60;99.90;;;;;;4973698;28;20387;-50
2022/08/30 00:55:42;;;;;;;6.03;2.60;;;28.60;99.90;;;;;;4973652;28;20026;-51
2022/08/30 00:58:26;;;;;;;9.55;2.78;;;28.60;99.90;;;;;;4973548;28;20068;-51
2022/08/30 01:00:55;;;;;;;7.68;2.30;;;28.60;99.90;;;;;;4973598;28;20034;-51
2022/08/30 01:03:22;;;;;;;6.97;2.90;;;28.60;99.90;;;;;;4972392;28;20139;-51
2022/08/30 01:05:50;;;;;;;6.57;2.40;;;28.60;99.90;;;;;;4972270;28;20477;-51
2022/08/30 01:08:16;;;;;;;10.38;2.63;;;28.50;99.90;;;;;;4973489;28;20117;-50
2022/08/30 01:10:42;;;;;;;5.80;2.58;;;28.50;99.90;;;;;;4973370;28;20022;-51
2022/08/30 01:13:11;;;;;;;5.97;2.90;;;28.50;99.90;;;;;;4973463;28;20037;-51
2022/08/30 01:15:37;;;;;;;7.80;2.92;;;28.50;99.90;;;;;;4973256;28;20050;-50
2022/08/30 01:18:03;;;;;;;5.20;2.08;;;28.50;99.90;;;;;;4973337;28;20097;-51
2022/08/30 01:20:45;;;;;;;9.77;2.42;;;28.50;99.90;;;;;;4973236;28;20445;-51
2022/08/30 01:23:17;;;;;;;6.45;2.58;;;28.50;99.90;;;;;;4973175;28;20038;-51
2022/08/30 01:25:46;;;;;;;8.57;2.72;;;28.50;99.90;;;;;;4972993;28;20026;-50
2022/08/30 01:28:16;;;;;;;11.57;2.60;;;28.50;99.90;;;;;;4972839;28;20038;-51
2022/08/30 01:30:43;;;;;;;9.43;2.60;;;28.50;99.90;;;;;;4973129;28;20078;-51
2022/08/30 01:33:10;;;;;;;7.90;3.03;;;28.50;99.90;;;;;;4973261;28;20033;-51
2022/08/30 01:35:42;;;;;;;11.55;3.20;;;28.50;99.90;;;;;;4973205;28;20308;-51
2022/08/30 01:38:09;;;;;;;10.65;2.60;;;28.50;99.90;;;;;;4972921;28;20470;-51
2022/08/30 01:40:35;;;;;;;11.35;3.15;;;28.50;99.90;;;;;;4973042;28;20031;-51
2022/08/30 01:43:01;;;;;;;8.55;2.58;;;28.60;99.90;;;;;;4972705;28;20050;-50
2022/08/30 01:45:27;;;;;;;10.68;3.00;;;28.60;99.90;;;;;;4972834;28;20042;-51
2022/08/30 01:47:53;;;;;;;9.23;2.30;;;28.60;99.90;;;;;;4972864;28;20034;-51
2022/08/30 01:50:18;;;;;;;8.48;2.45;;;28.60;99.90;;;;;;4972994;28;20023;-51
2022/08/30 01:52:44;;;;;;;6.68;2.20;;;28.60;99.90;;;;;;4971560;28;20023;-52
2022/08/30 01:55:10;;;;;;;8.50;2.90;;;28.70;99.90;;;;;;4972715;28;20027;-52
2022/08/30 01:57:36;;;;;;;8.85;2.55;;;28.60;99.90;;;;;;4972787;28;20031;-52
2022/08/30 02:00:06;;;;;;;7.65;2.20;;;28.60;99.90;;;;;;4972904;28;20023;-52
2022/08/30 02:02:31;;;;;;;7.85;1.98;;;28.60;99.90;;;;;;4972459;28;20371;-52
2022/08/30 02:04:57;;;;;;;10.63;2.72;;;28.60;99.90;;;;;;4972597;28;20129;-52
2022/08/30 02:07:23;;;;;;;8.07;2.45;;;28.60;99.90;;;;;;4971360;28;20059;-52
2022/08/30 02:09:50;;;;;;;8.77;2.63;;;28.60;99.90;;;;;;4972543;28;20041;-52
2022/08/30 02:12:16;;;;;;;12.32;2.28;;;28.60;99.90;;;;;;4972541;28;20377;-52
2022/08/30 02:14:42;;;;;;;8.75;2.58;;;28.60;99.90;;;;;;4972586;28;20185;-52
2022/08/30 02:17:12;;;;;;;8.27;1.98;;;28.60;99.90;;;;;;4972721;28;20493;-51
2022/08/30 02:19:38;;;;;;;12.07;3.65;;;28.60;99.90;;;;;;4972603;28;20417;-51
2022/08/30 02:22:05;;;;;;;15.55;2.55;;;28.60;99.90;;;;;;4971507;28;20039;-51
2022/08/30 02:24:31;;;;;;;9.10;2.30;;;28.60;99.90;;;;;;4972498;28;20045;-51
2022/08/30 02:26:57;;;;;;;8.85;2.03;;;28.60;99.90;;;;;;4972468;28;20101;-49
2022/08/30 02:29:24;;;;;;;15.35;3.05;;;28.60;99.90;;;;;;4972416;28;20085;-50
2022/08/30 02:31:50;;;;;;;15.65;3.85;;;28.60;99.90;;;;;;4972317;28;20033;-50
2022/08/30 02:34:16;;;;;;;14.73;2.70;;;28.50;99.90;;;;;;4972339;28;20094;-50
2022/08/30 02:36:42;;;;;;;11.20;3.00;;;28.40;99.90;;;;;;4972430;28;20113;-50
2022/08/30 02:39:10;;;;;;;14.82;2.97;;;28.40;99.90;;;;;;4974319;28;20044;-50
2022/08/30 02:41:37;;;;;;;10.30;2.85;;;28.30;99.90;;;;;;4975133;28;20034;-50
2022/08/30 02:44:04;;;;;;;10.20;2.83;;;28.30;99.90;;;;;;4976302;28;20039;-51
2022/08/30 02:46:29;;;;;;;11.98;3.30;;;28.30;99.90;;;;;;4976085;28;20047;-50
2022/08/30 02:48:55;;;;;;;10.48;3.05;;;28.20;99.90;;;;;;4976072;28;20073;-50
2022/08/30 02:51:21;;;;;;;14.30;2.85;;;28.20;99.90;;;;;;4976147;28;20039;-50
2022/08/30 02:53:48;;;;;;;7.40;2.40;;;28.20;99.90;;;;;;4976272;28;20027;-50
2022/08/30 02:56:14;;;;;;;10.93;3.08;;;28.20;99.90;;;;;;4975764;28;20022;-50
2022/08/30 02:58:41;;;;;;;7.63;2.88;;;28.10;99.90;;;;;;4976131;28;20035;-49
2022/08/30 03:01:07;;;;;;;20.63;4.32;;;28.10;99.90;;;;;;4975890;28;20027;-51
2022/08/30 03:03:34;;;;;;;10.50;3.33;;;28.10;99.90;;;;;;4975600;28;20030;-51
2022/08/30 03:06:02;;;;;;;11.35;3.00;;;28.10;99.90;;;;;;4962818;28;20027;-50
2022/08/30 03:08:29;;;;;;;10.45;2.97;;;28.00;99.90;;;;;;4954909;28;20471;-51
2022/08/30 03:10:56;;;;;;;15.75;3.03;;;28.00;99.90;;;;;;4974773;28;20030;-51
2022/08/30 03:13:22;;;;;;;7.80;3.05;;;27.90;99.90;;;;;;4993291;28;20030;-51
2022/08/30 03:15:49;;;;;;;15.05;2.63;;;27.80;99.90;;;;;;4982886;28;20034;-50
2022/08/30 03:18:16;;;;;;;9.50;2.92;;;27.80;99.90;;;;;;4994511;28;20030;-51
2022/08/30 03:20:42;;;;;;;13.23;2.88;;;27.80;99.90;;;;;;4994576;28;20023;-51
2022/08/30 03:23:08;;;;;;;12.63;3.00;;;27.80;99.90;;;;;;4966451;28;20054;-51
2022/08/30 03:25:34;;;;;;;7.28;2.75;;;27.80;99.90;;;;;;4991931;28;20158;-50
2022/08/30 03:28:00;;;;;;;11.27;3.00;;;27.80;99.90;;;;;;4994589;28;20030;-50
2022/08/30 03:30:26;;;;;;;6.22;2.70;;;27.80;99.90;;;;;;4994355;28;20018;-50
2022/08/30 03:32:52;;;;;;;7.65;2.67;;;27.80;99.90;;;;;;4994396;28;20486;-51
2022/08/30 03:35:18;;;;;;;10.55;3.05;;;27.80;99.90;;;;;;4994516;28;20022;-51
2022/08/30 03:37:45;;;;;;;13.70;2.83;;;27.80;99.90;;;;;;4981231;28;20126;-51
2022/08/30 03:40:14;;;;;;;7.95;2.85;;;27.90;99.90;;;;;;4967552;28;20077;-51
2022/08/30 03:42:40;;;;;;;7.28;2.53;;;28.00;99.90;;;;;;4987431;28;20117;-51
2022/08/30 03:45:08;;;;;;;7.88;2.42;;;28.00;99.90;;;;;;4979054;28;20390;-51
2022/08/30 03:47:34;;;;;;;7.70;2.60;;;28.00;99.90;;;;;;4967952;28;20030;-51
2022/08/30 03:49:59;;;;;;;11.93;3.17;;;28.10;99.90;;;;;;4972968;28;20062;-51
2022/08/30 03:52:26;;;;;;;9.70;3.20;;;28.10;99.90;;;;;;4985826;28;20104;-51
2022/08/30 03:54:51;;;;;;;12.85;3.17;;;28.30;99.90;;;;;;4993791;28;20026;-51
2022/08/30 03:57:17;;;;;;;11.20;3.35;;;28.40;99.90;;;;;;4994200;28;20022;-51
2022/08/30 03:59:43;;;;;;;7.20;2.85;;;28.40;99.90;;;;;;4992615;28;20033;-51
2022/08/30 04:02:08;;;;;;;10.52;3.08;;;28.40;99.90;;;;;;4993633;28;20041;-51
2022/08/30 04:04:34;;;;;;;11.65;3.20;;;28.60;99.90;;;;;;4993737;28;20034;-51
2022/08/30 04:07:00;;;;;;;12.50;3.20;;;28.60;99.90;;;;;;4992521;28;20034;-51
2022/08/30 04:09:26;;;;;;;7.97;3.38;;;28.70;99.90;;;;;;4993902;28;20030;-51
2022/08/30 04:11:51;;;;;;;9.32;3.25;;;28.70;99.90;;;;;;4993716;28;20359;-51
2022/08/30 04:14:18;;;;;;;11.27;3.50;;;28.70;99.90;;;;;;4985379;28;20053;-51
2022/08/30 04:16:45;;;;;;;9.80;2.88;;;28.80;99.90;;;;;;4988378;28;20025;-51
2022/08/30 04:19:11;;;;;;;9.93;3.17;;;28.80;99.90;;;;;;4993597;28;20035;-51
2022/08/30 04:21:37;;;;;;;6.75;2.95;;;28.80;99.90;;;;;;4993563;28;20065;-51
2022/08/30 04:24:03;;;;;;;10.30;2.83;;;28.80;99.90;;;;;;4993360;28;20034;-51
2022/08/30 04:26:29;;;;;;;8.77;3.60;;;28.90;99.90;;;;;;4993340;28;20133;-51
2022/08/30 04:28:55;;;;;;;15.43;5.47;;;28.90;99.90;;;;;;4993445;28;20101;-51
2022/08/30 04:31:21;;;;;;;17.08;4.75;;;28.90;99.90;;;;;;4993102;28;20022;-52
2022/08/30 04:33:47;;;;;;;13.05;3.83;;;28.80;99.90;;;;;;4993240;28;20044;-52
2022/08/30 04:36:13;;;;;;;9.30;3.72;;;28.80;99.90;;;;;;4993230;28;20022;-52
2022/08/30 04:38:40;;;;;;;19.38;5.45;;;28.70;99.90;;;;;;4993110;28;20034;-52
2022/08/30 04:41:12;;;;;;;19.50;4.53;;;28.70;99.90;;;;;;4993161;28;20534;-52
2022/08/30 04:43:38;;;;;;;14.00;4.85;;;28.70;99.90;;;;;;4992825;28;20035;-52
2022/08/30 04:46:08;;;;;;;16.58;5.55;;;28.60;99.90;;;;;;4993055;28;20045;-52
2022/08/30 04:48:35;;;;;;;14.48;4.75;;;28.60;99.90;;;;;;4993110;28;20031;-52
2022/08/30 04:51:08;;;;;;;;;;;28.60;99.90;;;;;;4993277;28;20417;-52
2022/08/30 04:53:35;;;;;;;11.70;4.18;;;28.60;99.90;;;;;;4992878;28;20174;-52
2022/08/30 04:56:05;;;;;;;16.48;4.68;;;28.50;99.90;;;;;;4992799;28;20023;-51
2022/08/30 04:58:31;;;;;;;14.90;4.18;;;28.50;99.90;;;;;;4992483;28;20113;-52
2022/08/30 05:00:57;;;;;;;15.60;3.92;;;28.40;99.90;;;;;;4992347;28;20506;-52
2022/08/30 05:03:22;;;;;;;12.63;4.22;;;28.40;99.90;;;;;;4992223;28;20088;-52
2022/08/30 05:05:49;;;;;;;12.02;3.70;;;28.40;99.90;;;;;;5007750;28;20121;-51
2022/08/30 05:08:17;;;;;;;10.03;3.53;;;28.40;99.90;;;;;;4992680;28;20022;-52
2022/08/30 05:10:46;;;;;;;11.70;3.30;;;28.30;99.90;;;;;;4992757;28;20256;-52
2022/08/30 05:13:12;;;;;;;10.38;4.18;;;28.40;99.90;;;;;;4992549;28;20026;-52
2022/08/30 05:15:39;;;;;;;6.65;3.25;;;28.30;99.90;;;;;;4978782;28;20121;-51
2022/08/30 05:18:09;;;;;;;12.27;3.90;;;28.40;99.90;;;;;;4992287;28;20132;-51
2022/08/30 05:20:36;;;;;;;13.07;4.65;;;28.40;99.90;;;;;;4992275;28;20026;-52
2022/08/30 05:23:02;;;;;;;14.77;3.78;;;28.40;99.90;;;;;;4992216;28;20393;-51
2022/08/30 05:25:31;;;;;;;10.65;2.92;;;28.40;99.90;;;;;;4992286;28;20117;-51
2022/08/30 05:27:57;;;;;;;8.38;3.72;;;28.40;99.90;;;;;;4992511;28;20029;-52
2022/08/30 05:30:24;;;;;;;7.70;3.65;;;28.40;99.90;;;;;;4992203;28;20135;-51
2022/08/30 05:32:50;;;;;;;;;;;28.40;99.90;;;;;;4992482;28;20030;-51
2022/08/30 05:35:17;;;;;;;6.82;2.92;;;28.50;99.90;;;;;;4992512;28;19912;-52
2022/08/30 05:37:43;;;;;;;7.88;4.20;;;28.60;99.90;;;;;;4992175;28;20421;-52
2022/08/30 05:40:10;;;;;;;7.13;3.58;;;28.60;99.90;;;;;;4991943;28;20577;-51
2022/08/30 05:42:37;;;;;;;6.18;2.85;;;28.60;99.90;;;;;;4992223;28;20435;-52
2022/08/30 05:45:04;;;;;;;8.73;3.15;;;28.70;99.90;;;;;;4992052;28;20505;-52
2022/08/30 05:47:30;;;;;;;7.20;3.17;;;28.70;99.90;;;;;;4991994;28;20485;-52
2022/08/30 05:49:55;;;;;;;8.75;3.42;;;28.70;99.90;;;;;;4991833;28;20053;-52
2022/08/30 05:52:21;;;;;;;9.50;3.28;;;28.80;99.90;;;;;;4991756;28;20108;-52
2022/08/30 05:54:53;;;;;;;8.20;2.83;;;28.80;99.90;;;;;;4992147;28;20386;-52
2022/08/30 05:57:19;;;;;;;11.05;3.28;;;28.90;99.90;;;;;;4992042;28;20022;-52
2022/08/30 05:59:45;;;;;;;12.23;3.85;;;28.90;99.90;;;;;;4991820;28;20374;-52
2022/08/30 06:02:11;;;;;;;16.52;4.00;;;28.90;99.90;;;;;;4991913;28;20031;-51
2022/08/30 06:04:37;;;;;;;12.43;3.50;;;29.00;99.90;;;;;;4991825;28;20031;-51
2022/08/30 06:07:03;;;;;;;7.95;3.15;;;29.00;99.90;;;;;;4991798;28;20022;-51
2022/08/30 06:09:29;;;;;;;9.73;3.13;;;29.00;99.90;;;;;;4991652;28;20064;-51
2022/08/30 06:11:56;;;;;;;13.98;3.42;;;29.00;99.90;;;;;;4991529;28;20033;-51
2022/08/30 06:14:22;;;;;;;11.73;3.17;;;29.10;99.90;;;;;;4985156;28;20359;-52
2022/08/30 06:16:48;;;;;;;9.80;3.60;;;29.10;99.90;;;;;;4991127;28;20494;-51
2022/08/30 06:19:15;;;;;;;11.50;3.65;;;29.10;99.90;;;;;;4995710;28;20038;-51
2022/08/30 06:21:42;;;;;;;15.03;3.77;;;29.10;99.90;;;;;;4995713;28;20061;-51
2022/08/30 06:24:09;;;;;;;;;;;29.20;99.90;;;;;;4995967;28;20280;-52
2022/08/30 06:26:36;;;;;;;;;;;29.20;99.90;;;;;;4996200;28;20152;-52
2022/08/30 06:29:02;;;;;;;;;;;29.20;99.90;;;;;;4995960;28;20055;-52
2022/08/30 06:31:28;;;;;;;17.73;4.15;;;29.30;99.90;;;;;;4995442;28;19956;-51
2022/08/30 06:33:54;;;;;;;15.20;3.75;;;29.20;99.90;;;;;;4995549;28;20033;-52
2022/08/30 06:36:22;;;;;;;21.40;4.75;;;29.20;99.90;;;;;;4982374;28;20027;-53
2022/08/30 06:38:54;;;;;;;26.35;4.47;;;29.30;99.90;;;;;;4968359;28;20413;-51
2022/08/30 06:41:24;;;;;;;14.82;3.90;;;29.30;99.90;;;;;;4995441;28;20022;-52
2022/08/30 06:43:51;;;;;;;16.98;5.40;;;29.30;99.90;;;;;;4995083;28;20046;-51
2022/08/30 06:46:20;;;;;;;24.55;4.88;;;29.30;99.90;;;;;;4985189;28;20019;-52
2022/08/30 06:48:46;;;;;;;26.33;4.90;;;29.30;99.90;;;;;;4992001;28;20037;-51
2022/08/30 06:51:13;;;;;;;17.48;4.50;;;29.30;99.90;;;;;;4995081;28;20015;-50
2022/08/30 06:53:39;;;;;;;20.10;4.00;;;29.30;99.90;;;;;;4995150;28;20121;-52
2022/08/30 06:56:08;;;;;;;13.85;4.10;;;29.30;99.90;;;;;;4995004;28;20522;-52
2022/08/30 06:58:36;;;;;;;23.15;5.03;;;29.30;99.90;;;;;;4995262;28;20022;-51
2022/08/30 07:01:03;;;;;;;15.73;4.32;;;29.30;99.90;;;;;;4994870;28;20018;-52
2022/08/30 07:03:28;;;;;;;21.45;4.90;;;29.30;99.90;;;;;;4994829;28;20046;-51
2022/08/30 07:05:56;;;;;;;16.65;4.65;;;29.30;99.90;;;;;;4994931;28;20026;-51
2022/08/30 07:08:23;;;;;;;;;;;29.30;99.90;;;;;;4995487;28;20442;-51
2022/08/30 07:10:49;;;;;;;17.30;4.85;;;29.30;99.90;;;;;;4994798;28;19906;-52
2022/08/30 07:13:15;;;;;;;13.73;5.10;;;29.40;99.90;;;;;;4994561;28;20030;-53
2022/08/30 07:15:43;;;;;;;16.98;4.65;;;29.40;99.90;;;;;;4980837;28;20089;-52
2022/08/30 07:20:54;;;;;;;13.15;4.80;;;29.30;99.90;;;;;;4994908;28;20064;-52
2022/08/30 07:23:20;;;;;;;13.30;4.80;;;29.40;99.90;;;;;;4994749;28;20070;-51
2022/08/30 07:25:45;;;;;;;11.82;5.45;;;29.40;99.90;;;;;;4993908;28;20034;-52
2022/08/30 07:28:12;;;;;;;20.42;5.50;;;29.40;99.90;;;;;;4994161;28;20029;-51
2022/08/30 07:30:40;;;;;;;17.67;4.97;;;29.40;99.90;;;;;;4994385;28;20426;-51
2022/08/30 07:33:06;;;;;;;10.18;4.88;;;29.40;99.90;;;;;;4994392;28;20083;-52
2022/08/30 07:35:31;;;;;;;10.48;4.80;;;29.30;99.90;;;;;;4994393;28;20023;-51
2022/08/30 07:37:58;;;;;;;17.15;5.10;;;29.40;99.90;;;;;;4993902;28;20026;-51
2022/08/30 07:40:24;;;;;;;18.67;7.53;;;29.30;99.90;;;;;;4994219;28;20049;-52
2022/08/30 07:42:50;;;;;;;20.98;12.25;;;29.40;99.90;;;;;;4994032;28;20038;-51
2022/08/30 07:45:17;;;;;;;17.48;6.35;;;29.30;99.90;;;;;;4993924;28;20033;-51
2022/08/30 07:47:43;;;;;;;16.08;6.03;;;29.30;99.90;;;;;;4994056;28;20030;-51
2022/08/30 07:50:09;;;;;;;20.35;9.27;;;29.30;99.90;;;;;;4994018;28;20023;-52
2022/08/30 07:52:35;;;;;;;14.38;5.57;;;29.30;99.90;;;;;;4993846;28;20027;-51
2022/08/30 07:55:01;;;;;;;18.42;5.15;;;29.30;99.90;;;;;;4992665;28;20030;-51
2022/08/30 07:57:30;;;;;;;19.38;6.15;;;29.20;99.90;;;;;;4993904;28;20030;-51
2022/08/30 07:59:57;;;;;;;24.13;4.93;;;29.20;99.90;;;;;;4994085;28;20030;-51
2022/08/30 08:02:23;;;;;;;18.92;6.28;;;29.20;99.90;;;;;;4993633;28;20030;-51
2022/08/30 08:04:48;;;;;;;22.10;7.82;;;29.20;99.90;;;;;;4993639;28;20034;-51
2022/08/30 08:07:14;;;;;;;20.20;7.82;;;29.10;99.90;;;;;;4993621;28;20462;-51
2022/08/30 08:09:40;;;;;;;19.67;7.15;;;29.10;99.90;;;;;;4992199;28;20101;-52
2022/08/30 08:12:07;;;;;;;18.75;5.95;;;29.10;99.90;;;;;;4993547;28;20500;-51
2022/08/30 08:14:33;;;;;;;16.67;6.07;;;29.10;99.90;;;;;;4983435;28;20035;-51
2022/08/30 08:16:59;;;;;;;20.75;5.80;;;29.00;99.90;;;;;;4975960;28;20058;-51
2022/08/30 08:19:26;;;;;;;19.15;6.15;;;29.00;99.90;;;;;;4993677;28;20050;-51
2022/08/30 08:21:55;;;;;;;14.75;5.22;;;29.00;99.90;;;;;;4993346;28;20023;-51
2022/08/30 08:24:22;;;;;;;10.85;5.75;;;28.90;99.90;;;;;;4993253;28;20034;-51
2022/08/30 08:26:48;;;;;;;14.47;5.77;;;29.00;99.90;;;;;;4993353;28;20039;-51
2022/08/30 08:29:14;;;;;;;20.05;7.13;;;28.90;99.90;;;;;;4991965;28;20334;-51
2022/08/30 08:31:40;;;;;;;17.52;6.05;;;28.90;99.90;;;;;;4993309;28;20041;-51
2022/08/30 08:34:07;;;;;;;16.58;5.70;;;28.90;99.90;;;;;;4993222;28;20045;-51
2022/08/30 08:36:34;;;;;;;17.90;5.63;;;28.90;99.90;;;;;;4992287;28;20045;-51
2022/08/30 08:39:00;;;;;;;17.35;6.20;;;28.90;99.90;;;;;;4993071;28;20014;-51
2022/08/30 08:41:53;;;;;;;15.88;5.38;;;28.90;99.90;;;;;;4993212;28;20033;-51
2022/08/30 08:44:41;;;;;;;19.33;6.32;;;28.90;99.90;;;;;;5007840;28;20386;-51
2022/08/30 08:47:40;;;;;;;19.73;7.05;;;28.90;99.90;;;;;;4992276;28;20026;-51
2022/08/30 08:50:18;;;;;;;20.80;6.03;;;28.90;99.90;;;;;;4984116;28;20027;-51
2022/08/30 08:53:44;;;;;;;21.60;5.97;;;28.90;99.90;;;;;;4992756;28;20824;-52
2022/08/30 08:56:11;;;;;;;11.27;5.35;;;28.90;99.90;;;;;;4991185;28;20035;-52
2022/08/30 08:58:46;;;;;;;15.30;5.25;;;28.80;99.90;;;;;;4992461;28;20030;-51
2022/08/30 09:01:14;;;;;;;28.35;7.28;;;28.80;99.90;;;;;;4992502;28;20469;-51
2022/08/30 09:03:41;;;;;;;17.55;5.68;;;28.70;99.90;;;;;;4992517;28;20426;-51
2022/08/30 09:06:42;;;;;;;14.27;6.40;;;28.60;99.90;;;;;;4992643;28;20036;-52
2022/08/30 09:09:08;;;;;;;23.58;7.05;;;28.50;99.90;;;;;;4982758;28;20074;-52
2022/08/30 09:11:36;;;;;;;15.68;6.82;;;28.40;99.90;;;;;;4985659;28;20144;-52
2022/08/30 09:14:07;;;;;;;18.83;5.85;;;28.40;99.90;;;;;;4985602;28;20046;-52
2022/08/30 09:16:51;;;;;;;24.10;6.57;;;28.30;99.90;;;;;;4973302;28;20031;-52
2022/08/30 09:19:31;;;;;;;21.45;6.20;;;28.30;99.90;;;;;;4991884;28;20043;-52
2022/08/30 09:21:59;;;;;;;17.30;7.13;;;28.30;99.90;;;;;;4992419;28;20474;-52
2022/08/30 09:24:41;;;;;;;19.10;6.30;;;28.30;99.90;;;;;;4992280;28;20136;-52
2022/08/30 09:27:35;;;;;;;18.48;6.65;;;28.30;99.90;;;;;;4992131;28;20026;-52
2022/08/30 09:30:04;;;;;;;21.60;6.75;;;28.40;99.90;;;;;;4990473;28;20114;-52
2022/08/30 09:32:43;;;;;;;17.27;6.32;;;28.30;99.90;;;;;;4992241;28;20026;-52
2022/08/30 09:35:16;;;;;;;18.38;7.25;;;28.30;99.90;;;;;;4991866;28;20359;-52
2022/08/30 09:38:03;;;;;;;20.60;5.60;;;28.30;99.90;;;;;;4991945;28;20030;-52
2022/08/30 09:40:43;;;;;;;21.53;6.87;;;28.40;99.90;;;;;;5006918;28;20041;-51
2022/08/30 09:43:20;;;;;;;18.75;5.85;;;28.40;99.90;;;;;;5006766;28;20351;-52
2022/08/30 09:46:03;;;;;;;25.33;7.13;;;28.40;99.90;;;;;;4991746;28;20390;-51
2022/08/30 09:48:39;;;;;;;24.88;6.65;;;28.40;99.90;;;;;;4991789;28;20394;-51
2022/08/30 09:51:13;;;;;;;21.17;7.05;;;28.40;99.90;;;;;;4991672;28;20030;-52
2022/08/30 09:54:06;;;;;;;27.80;7.30;;;28.40;99.90;;;;;;4991665;28;20023;-52
2022/08/30 09:56:57;;;;;;;20.88;7.15;;;28.40;99.90;;;;;;4991901;28;20022;-52
2022/08/30 09:59:50;;;;;;;21.88;6.63;;;28.50;99.90;;;;;;4991584;28;20031;-52
2022/08/30 10:02:51;;;;;;;22.63;7.20;;;28.50;99.90;;;;;;4991554;28;20030;-53
2022/08/30 10:05:29;;;;;;;19.40;7.05;;;28.50;99.90;;;;;;4975764;28;20084;-52
2022/08/30 10:08:08;;;;;;;21.88;6.88;;;28.50;99.90;;;;;;4991566;28;20030;-52
2022/08/30 10:11:13;;;;;;;27.10;7.60;;;28.50;99.90;;;;;;4991388;28;20018;-52
2022/08/30 10:14:00;;;;;;;23.52;6.72;;;28.50;99.90;;;;;;4970790;28;20370;-52
2022/08/30 10:16:51;;;;;;;27.08;8.93;;;28.50;99.90;;;;;;4969721;28;20080;-52
2022/08/30 10:19:28;;;;;;;30.90;11.20;;;28.60;99.90;;;;;;4991417;28;20081;-52
2022/08/30 10:22:07;;;;;;;26.30;8.95;;;28.60;99.90;;;;;;4991261;28;20034;-52
2022/08/30 10:24:44;;;;;;;25.83;7.57;;;28.60;99.90;;;;;;4991388;28;20093;-52
2022/08/30 10:27:19;;;;;;;23.88;9.38;;;28.60;99.90;;;;;;4991283;28;20053;-52
2022/08/30 10:30:06;;;;;;;26.95;8.50;;;28.60;99.90;;;;;;4991149;28;20063;-51
2022/08/30 10:32:45;;;;;;;30.35;11.50;;;28.60;99.90;;;;;;4991490;28;20537;-52
2022/08/30 10:35:24;;;;;;;29.33;9.73;;;28.60;99.90;;;;;;4991310;28;20037;-51
2022/08/30 10:37:57;;;;;;;27.73;12.82;;;28.60;99.90;;;;;;4991142;28;20506;-51
2022/08/30 10:43:49;;;;;;;26.50;10.43;;;28.60;99.90;;;;;;4991274;28;20034;-52
2022/08/30 10:46:33;;;;;;;29.45;8.98;;;28.60;99.90;;;;;;4989950;28;20041;-52
2022/08/30 10:49:03;;;;;;;37.10;8.13;;;28.70;99.90;;;;;;4991166;28;20041;-52
2022/08/30 10:51:38;;;;;;;39.45;8.23;;;28.80;99.90;;;;;;5006153;28;20022;-52
2022/08/30 10:54:31;;;;;;;26.52;7.28;;;28.80;99.90;;;;;;4991378;28;20037;-51
2022/08/30 10:56:57;;;;;;;21.98;6.60;;;28.90;99.90;;;;;;4990902;28;20492;-52
2022/08/30 10:59:23;;;;;;;23.88;7.25;;;28.90;99.90;;;;;;4991586;28;20061;-52
2022/08/30 11:02:50;;;;;;;21.40;6.35;;;29.00;99.90;;;;;;4994754;28;20026;-51
2022/08/30 11:05:41;;;;;;;24.63;7.80;;;29.10;99.90;;;;;;4953338;29;20039;-52
2022/08/30 11:08:40;;;;;;;21.95;5.85;;;29.20;99.90;;;;;;4943543;29;20032;-51
2022/08/30 11:11:39;;;;;;;23.95;8.68;;;29.30;99.90;;;;;;4980817;28;20039;-51
2022/08/30 11:14:08;;;;;;;18.20;6.85;;;29.30;99.90;;;;;;4992040;28;20022;-50
2022/08/30 11:16:38;;;;;;;26.77;9.98;;;29.40;99.90;;;;;;4980445;28;20030;-51
2022/08/30 11:19:16;;;;;;;17.23;7.10;;;29.40;99.90;;;;;;4974974;28;20047;-52
2022/08/30 11:21:43;;;;;;;19.08;7.90;;;29.50;99.90;;;;;;4991462;28;20030;-52
2022/08/30 11:24:11;;;;;;;26.10;5.67;;;29.50;99.90;;;;;;4983316;28;20482;-53
2022/08/30 11:26:47;;;;;;;17.90;5.53;;;29.50;99.90;;;;;;4994342;28;20048;-52
2022/08/30 11:29:34;;;;;;;24.10;6.20;;;29.60;99.90;;;;;;4994386;28;20018;-52
2022/08/30 11:32:12;;;;;;;21.38;6.65;;;29.70;99.90;;;;;;4994035;28;20027;-52
2022/08/30 11:34:44;;;;;;;23.05;6.07;;;29.70;99.90;;;;;;4977315;28;20050;-52
2022/08/30 11:37:10;;;;;;;22.98;5.10;;;29.80;99.90;;;;;;4977746;28;20138;-53
2022/08/30 11:39:48;;;;;;;26.83;5.90;;;29.90;99.90;;;;;;4994356;28;20030;-54
2022/08/30 11:42:37;;;;;;;23.15;4.90;;;29.90;99.90;;;;;;4993486;28;20118;-53
2022/08/30 11:45:21;;;;;;;20.10;3.38;;;30.00;99.90;;;;;;4991089;28;20061;-53
2022/08/30 11:47:59;;;;;;;15.23;4.47;;;30.10;99.90;;;;;;4967771;28;20460;-53
2022/08/30 11:50:28;;;;;;;13.63;4.07;;;30.20;99.90;;;;;;4961065;28;20031;-53
2022/08/30 11:53:03;;;;;;;18.85;5.75;;;30.30;99.90;;;;;;4983816;28;20428;-51
2022/08/30 11:55:37;;;;;;;20.35;4.28;;;30.30;99.90;;;;;;4993965;28;20451;-53
2022/08/30 11:58:32;;;;;;;20.38;3.63;;;30.40;99.90;;;;;;4964266;28;20070;-52
2022/08/30 12:01:31;;;;;;;16.17;3.60;;;30.50;99.90;;;;;;4967264;28;20086;-52
2022/08/30 12:04:00;;;;;;;27.05;4.60;;;30.60;99.90;;;;;;4982433;28;20563;-52
2022/08/30 12:06:41;;;;;;;26.17;4.15;;;30.70;99.90;;;;;;4960021;28;20026;-51
2022/08/30 12:09:09;;;;;;;21.45;3.05;;;30.70;99.90;;;;;;4965518;28;20089;-52
2022/08/30 12:11:35;;;;;;;19.35;5.30;;;30.80;99.90;;;;;;4981602;28;20037;-52
2022/08/30 12:14:03;;;;;;;24.08;5.63;;;30.90;99.90;;;;;;4991272;28;20027;-52
2022/08/30 12:19:32;;;;;;;27.08;3.47;;;31.00;99.90;;;;;;4965017;28;20691;-50
2022/08/30 12:22:04;;;;;;;11.85;2.72;;;31.00;99.90;;;;;;4990189;28;20030;-52
2022/08/30 12:24:43;;;;;;;11.15;2.45;;;31.00;99.90;;;;;;4993238;28;20050;-53
2022/08/30 12:27:31;;;;;;;26.77;3.10;;;31.10;99.90;;;;;;4960708;28;20114;-52
2022/08/30 12:30:05;;;;;;;16.85;3.72;;;31.00;99.90;;;;;;4974348;28;20397;-53
2022/08/30 12:32:31;;;;;;;21.63;5.10;;;31.10;99.90;;;;;;4987252;28;20034;-52
2022/08/30 12:35:04;;;;;;;30.88;5.82;;;31.10;99.90;;;;;;4989488;28;20038;-55
2022/08/30 12:37:32;;;;;;;26.65;6.10;;;31.10;99.90;;;;;;4993036;28;20117;-52
2022/08/30 12:40:04;;;;;;;22.25;6.18;;;31.00;99.90;;;;;;4992884;28;20030;-51
2022/08/30 12:42:33;;;;;;;22.35;6.32;;;31.00;99.90;;;;;;4992754;28;20037;-51
2022/08/30 12:45:04;;;;;;;26.38;7.78;;;30.90;99.90;;;;;;4992882;28;20100;-52
2022/08/30 12:47:41;;;;;;;19.13;6.57;;;30.70;99.90;;;;;;4986474;28;20478;-52
2022/08/30 12:50:08;;;;;;;29.40;8.73;;;30.60;99.90;;;;;;4957146;28;20027;-51
2022/08/30 12:52:39;;;;;;;22.80;7.45;;;30.50;99.90;;;;;;4952390;28;20031;-52
2022/08/30 12:55:17;;;;;;;18.58;7.38;;;30.40;99.90;;;;;;4953456;28;20433;-52
2022/08/30 12:58:08;;;;;;;16.58;6.75;;;30.30;99.90;;;;;;4953356;28;20027;-51
2022/08/30 13:01:09;;;;;;;20.23;7.28;;;30.20;99.90;;;;;;4959996;28;20034;-52
2022/08/30 13:03:36;;;;;;;27.88;7.90;;;30.10;99.90;;;;;;4989658;28;20113;-53
2022/08/30 13:06:03;;;;;;;21.75;7.55;;;30.00;99.90;;;;;;4992776;28;20420;-52
2022/08/30 13:08:37;;;;;;;25.77;7.10;;;30.00;99.90;;;;;;4992357;28;20053;-53
2022/08/30 13:11:09;;;;;;;37.05;8.40;;;30.00;99.90;;;;;;4992037;28;20045;-51
2022/08/30 13:13:36;;;;;;;16.42;7.00;;;29.90;99.90;;;;;;4992296;28;20062;-52
2022/08/30 13:16:16;;;;;;;20.70;5.95;;;29.90;99.90;;;;;;4970589;28;20458;-51